Time;durP1;ratioP1;P1;durP2;ratioP2;P2;SDS_P1;SDS_P2;PMS_P1;PMS_P2;Temp;Humidity;BMP_temperature;BMP_pressure;BME280_temperature;BME280_humidity;BME280_pressure;Samples;Min_cycle;Max_cycle;Signal;HPM_P1;HPM_P2
2023/07/01 00:02:23;;;;;;;3.20;2.58;;;;;;;22.95;65.02;100588.88;4988344;28;99185;-63
2023/07/01 00:04:49;;;;;;;7.22;3.30;;;;;;;23.01;64.70;100592.88;4991463;28;98841;-63
2023/07/01 00:07:16;;;;;;;4.10;2.85;;;;;;;22.98;64.63;100588.59;4991462;28;96947;-64
2023/07/01 00:09:42;;;;;;;5.50;3.28;;;;;;;23.07;64.51;100584.22;4986892;28;97012;-64
2023/07/01 00:12:08;;;;;;;10.35;3.22;;;;;;;22.99;64.83;100584.91;4997148;28;99227;-65
2023/07/01 00:14:36;;;;;;;13.52;4.00;;;;;;;22.80;65.22;100592.09;4990169;28;98771;-64
2023/07/01 00:17:03;;;;;;;10.18;3.35;;;;;;;23.00;64.91;100586.63;4994616;28;96681;-64
2023/07/01 00:19:29;;;;;;;9.60;3.13;;;;;;;22.86;65.37;100594.22;4999140;28;96813;-64
2023/07/01 00:21:56;;;;;;;7.30;3.20;;;;;;;22.94;66.12;100591.72;4989634;28;98999;-63
2023/07/01 00:24:22;;;;;;;4.20;2.97;;;;;;;22.95;65.51;100588.03;4989315;28;98907;-64
2023/07/01 00:26:48;;;;;;;4.32;3.42;;;;;;;22.83;66.13;100584.59;4993462;28;96694;-65
2023/07/01 00:29:14;;;;;;;4.05;3.20;;;;;;;23.08;64.95;100583.25;4988199;28;96962;-64
2023/07/01 00:31:42;;;;;;;5.15;3.35;;;;;;;23.08;64.33;100583.25;4993248;28;98952;-64
2023/07/01 00:34:08;;;;;;;6.50;3.58;;;;;;;23.27;64.27;100579.72;4994863;28;99062;-64
2023/07/01 00:36:35;;;;;;;6.10;3.08;;;;;;;23.20;64.73;100579.44;4990185;28;96875;-63
2023/07/01 00:39:03;;;;;;;5.10;2.65;;;;;;;23.37;64.09;100584.13;4994135;28;97479;-64
2023/07/01 00:41:29;;;;;;;3.60;2.85;;;;;;;23.48;63.72;100583.19;4988072;28;99036;-63
2023/07/01 00:43:56;;;;;;;3.22;2.95;;;;;;;23.58;63.26;100588.59;4987157;28;99026;-64
2023/07/01 00:46:22;;;;;;;3.80;2.90;;;;;;;23.40;63.72;100577.63;4985379;28;97374;-64
2023/07/01 00:48:50;;;;;;;4.00;3.17;;;;;;;23.30;64.23;100572.19;4988759;28;96996;-63
2023/07/01 00:51:17;;;;;;;5.03;3.42;;;;;;;23.07;65.33;100570.75;4990063;28;98956;-63
2023/07/01 00:53:44;;;;;;;6.85;3.50;;;;;;;23.20;64.83;100574.03;4986587;28;98995;-65
2023/07/01 00:56:10;;;;;;;4.32;3.20;;;;;;;23.22;64.60;100571.22;4988880;28;96692;-65
2023/07/01 00:58:36;;;;;;;4.15;3.20;;;;;;;23.10;65.23;100565.09;5001546;28;96808;-64
2023/07/01 01:01:10;;;;;;;4.85;3.15;;;;;;;23.25;64.47;100557.44;4994227;28;99071;-63
2023/07/01 01:03:45;;;;;;;6.13;3.97;;;;;;;23.03;64.71;100555.88;4993105;28;98914;-63
2023/07/01 01:06:18;;;;;;;5.38;3.45;;;;;;;22.88;65.32;100554.53;4999781;28;96837;-63
2023/07/01 01:08:56;;;;;;;4.65;3.60;;;;;;;22.93;65.56;100546.91;4995652;28;96830;-63
2023/07/01 01:11:24;;;;;;;5.93;3.42;;;;;;;23.05;65.10;100551.16;4988638;28;101095;-65
2023/07/01 01:13:51;;;;;;;8.40;3.42;;;;;;;23.20;64.55;100546.25;4997261;28;98946;-63
2023/07/01 01:16:18;;;;;;;3.63;3.33;;;;;;;23.25;64.46;100543.97;4992915;28;96986;-63
2023/07/01 01:18:45;;;;;;;4.25;3.40;;;;;;;23.34;64.29;100535.03;4993237;28;99311;-63
2023/07/01 01:21:14;;;;;;;6.50;3.25;;;;;;;23.12;64.72;100535.28;4992397;28;99306;-66
2023/07/01 01:23:46;;;;;;;3.70;3.30;;;;;;;22.95;65.67;100540.38;4987209;28;98806;-64
2023/07/01 01:26:18;;;;;;;3.10;2.90;;;;;;;22.85;66.41;100534.09;4990606;28;97176;-64
2023/07/01 01:28:46;;;;;;;5.70;3.47;;;;;;;22.98;65.64;100532.00;4994552;28;96849;-65
2023/07/01 01:31:12;;;;;;;4.30;3.47;;;;;;;23.00;66.06;100531.88;4982703;28;97843;-64
2023/07/01 01:33:39;;;;;;;5.13;3.38;;;;;;;22.94;65.59;100527.06;4990040;28;101495;-63
2023/07/01 01:36:10;;;;;;;3.90;3.55;;;;;;;22.79;66.10;100528.41;4986751;28;96934;-63
2023/07/01 01:38:39;;;;;;;5.43;3.58;;;;;;;22.87;66.12;100528.59;4995260;28;96716;-64
2023/07/01 01:41:10;;;;;;;6.00;3.92;;;;;;;22.79;66.75;100526.59;4998216;28;99075;-64
2023/07/01 01:43:46;;;;;;;5.78;3.58;;;;;;;22.92;66.16;100529.88;4993705;28;97983;-63
2023/07/01 01:46:15;;;;;;;9.35;4.07;;;;;;;22.91;66.19;100514.69;4999552;28;96908;-63
2023/07/01 01:48:42;;;;;;;5.20;3.28;;;;;;;22.85;66.31;100519.78;4995976;28;96882;-63
2023/07/01 01:51:10;;;;;;;5.57;4.10;;;;;;;22.99;65.40;100514.00;4992573;28;99389;-63
2023/07/01 01:53:39;;;;;;;6.45;4.13;;;;;;;22.74;66.36;100507.28;4988308;28;98844;-63
2023/07/01 01:56:06;;;;;;;4.55;4.00;;;;;;;22.92;65.96;100507.47;4990859;28;96679;-63
2023/07/01 01:58:33;;;;;;;6.68;4.13;;;;;;;22.88;66.26;100506.06;4990212;28;96791;-63
2023/07/01 02:00:59;;;;;;;6.05;4.15;;;;;;;22.96;65.89;100506.22;4983621;28;99047;-64
2023/07/01 02:03:27;;;;;;;6.90;3.97;;;;;;;22.90;66.38;100504.94;4994932;28;99451;-64
2023/07/01 02:05:53;;;;;;;4.25;3.85;;;;;;;22.82;66.56;100502.06;4997246;28;96671;-64
2023/07/01 02:08:19;;;;;;;6.65;3.97;;;;;;;22.80;66.98;100495.97;4993586;28;96879;-64
2023/07/01 02:10:46;;;;;;;4.80;4.30;;;;;;;22.74;67.50;100499.22;4986713;28;99071;-64
2023/07/01 02:13:12;;;;;;;5.75;3.78;;;;;;;22.88;66.98;100498.81;4990813;28;98876;-64
2023/07/01 02:15:38;;;;;;;4.28;3.85;;;;;;;22.81;67.00;100494.13;4986073;28;97146;-64
2023/07/01 02:18:05;;;;;;;6.35;3.92;;;;;;;22.66;67.94;100490.94;4989304;28;96867;-63
2023/07/01 02:20:33;;;;;;;7.28;4.10;;;;;;;22.61;68.03;100490.50;4990265;28;98995;-63
2023/07/01 02:22:59;;;;;;;5.05;3.92;;;;;;;22.68;67.71;100486.28;4992927;28;98830;-63
2023/07/01 02:25:26;;;;;;;4.75;4.28;;;;;;;22.65;67.50;100483.84;4996718;28;96744;-63
2023/07/01 02:27:52;;;;;;;4.45;4.05;;;;;;;22.55;67.88;100486.53;4984710;28;96775;-63
2023/07/01 02:30:19;;;;;;;6.25;4.47;;;;;;;22.52;68.30;100492.16;4989610;28;98726;-63
2023/07/01 02:32:45;;;;;;;6.82;4.65;;;;;;;22.86;66.79;100492.72;4999110;28;97730;-63
2023/07/01 02:35:11;;;;;;;5.93;4.28;;;;;;;22.44;67.86;100494.72;4996961;28;96926;-64
2023/07/01 02:37:39;;;;;;;5.10;4.20;;;;;;;22.52;67.48;100492.16;4998461;28;97039;-63
2023/07/01 02:40:06;;;;;;;4.68;4.03;;;;;;;22.52;67.82;100491.31;4990209;28;99156;-62
2023/07/01 02:42:33;;;;;;;7.15;4.18;;;;;;;22.55;67.94;100494.59;4987807;28;98952;-63
2023/07/01 02:44:59;;;;;;;5.13;4.10;;;;;;;22.65;67.31;100484.69;4993059;28;97216;-63
2023/07/01 02:47:25;;;;;;;4.18;3.80;;;;;;;22.67;67.16;100477.34;4984160;28;97027;-63
2023/07/01 02:49:52;;;;;;;10.82;5.05;;;;;;;22.62;66.52;100466.13;4995942;28;101027;-63
2023/07/01 02:52:18;;;;;;;6.88;4.78;;;;;;;22.62;66.42;100471.53;4976613;28;98972;-63
2023/07/01 02:54:45;;;;;;;6.70;4.72;;;;;;;22.61;66.29;100467.13;4987184;28;96882;-63
2023/07/01 02:57:12;;;;;;;6.45;4.93;;;;;;;22.55;66.44;100466.81;4991298;28;97847;-63
2023/07/01 02:59:38;;;;;;;4.80;4.40;;;;;;;22.66;66.09;100467.56;4994224;28;99098;-64
2023/07/01 03:02:06;;;;;;;5.03;4.28;;;;;;;22.66;66.38;100470.25;4986479;28;99004;-63
2023/07/01 03:04:33;;;;;;;5.22;4.70;;;;;;;22.64;66.31;100464.13;4993926;28;96722;-63
2023/07/01 03:06:59;;;;;;;4.93;4.45;;;;;;;22.63;66.51;100462.47;4980831;28;97052;-63
2023/07/01 03:09:26;;;;;;;7.55;4.55;;;;;;;22.96;65.09;100455.88;4986762;28;101366;-63
2023/07/01 03:11:54;;;;;;;6.30;4.30;;;;;;;22.90;65.30;100450.19;4994522;28;98990;-65
2023/07/01 03:14:21;;;;;;;7.00;5.25;;;;;;;22.66;65.59;100458.63;4987091;28;96991;-63
2023/07/01 03:16:49;;;;;;;6.75;4.90;;;;;;;22.75;65.50;100449.75;4996107;28;96890;-62
2023/07/01 03:19:16;;;;;;;10.10;5.28;;;;;;;22.54;66.10;100444.44;4990473;28;99634;-63
2023/07/01 03:21:44;;;;;;;8.48;4.45;;;;;;;22.65;65.64;100444.28;4993416;28;99529;-63
2023/07/01 03:24:10;;;;;;;9.25;5.70;;;;;;;22.73;65.50;100445.47;4994921;28;97284;-63
2023/07/01 03:26:36;;;;;;;9.38;5.20;;;;;;;22.57;65.65;100440.63;4995393;28;96898;-63
2023/07/01 03:29:04;;;;;;;6.43;4.78;;;;;;;22.41;66.17;100440.28;4995195;28;99138;-63
2023/07/01 03:31:32;;;;;;;7.03;5.35;;;;;;;22.45;66.00;100439.84;4991080;28;99027;-63
2023/07/01 03:33:59;;;;;;;6.88;5.00;;;;;;;22.52;65.59;100445.53;4995946;28;98189;-63
2023/07/01 03:36:25;;;;;;;9.55;5.15;;;;;;;22.35;65.89;100441.69;4993191;28;97023;-63
2023/07/01 03:38:52;;;;;;;7.60;5.05;;;;;;;22.31;66.12;100440.25;4989584;28;99051;-65
2023/07/01 03:41:19;;;;;;;13.18;6.25;;;;;;;22.21;66.41;100442.06;4989070;28;98903;-63
2023/07/01 03:43:45;;;;;;;9.68;4.90;;;;;;;22.41;65.68;100448.34;4983352;28;96792;-62
2023/07/01 03:46:13;;;;;;;7.35;5.00;;;;;;;22.41;65.98;100449.22;4988323;28;96973;-63
2023/07/01 03:48:40;;;;;;;6.80;5.43;;;;;;;22.23;66.14;100453.53;4984577;28;99029;-62
2023/07/01 03:51:06;;;;;;;7.05;5.93;;;;;;;22.35;66.11;100441.69;4986655;28;98974;-63
2023/07/01 03:53:32;;;;;;;7.63;5.50;;;;;;;22.26;66.07;100447.88;4998094;28;96957;-63
2023/07/01 03:55:59;;;;;;;6.47;5.57;;;;;;;22.48;65.66;100447.66;4984861;28;96828;-63
2023/07/01 03:58:25;;;;;;;6.35;5.38;;;;;;;22.59;65.13;100447.53;4990745;28;100996;-63
2023/07/01 04:00:51;;;;;;;10.98;5.55;;;;;;;22.59;65.17;100452.94;4990521;28;99028;-63
2023/07/01 04:03:23;;;;;;;11.63;5.15;;;;;;;22.60;64.82;100457.34;4991197;28;96879;-63
2023/07/01 04:05:50;;;;;;;12.02;6.18;;;;;;;22.54;64.89;100454.34;4991126;28;96931;-63
2023/07/01 04:08:16;;;;;;;7.32;6.13;;;;;;;22.57;64.87;100451.38;4988906;28;99265;-63
2023/07/01 04:10:42;;;;;;;9.70;6.00;;;;;;;22.72;63.96;100446.44;5001168;28;98984;-63
2023/07/01 04:13:10;;;;;;;6.78;5.65;;;;;;;22.95;63.54;100447.94;4990717;28;96825;-63
2023/07/01 04:15:36;;;;;;;8.80;5.65;;;;;;;22.67;63.95;100454.94;4990060;28;96842;-63
2023/07/01 04:18:02;;;;;;;9.23;5.60;;;;;;;22.95;63.07;100443.41;4990448;28;99260;-63
2023/07/01 04:20:31;;;;;;;6.93;5.65;;;;;;;23.00;62.67;100443.81;4994689;28;98903;-62
2023/07/01 04:22:57;;;;;;;7.20;5.20;;;;;;;23.14;62.37;100447.09;4985391;28;96809;-63
2023/07/01 04:25:24;;;;;;;12.00;4.93;;;;;;;23.01;62.32;100439.28;4993145;28;96883;-63
2023/07/01 04:27:50;;;;;;;6.00;5.10;;;;;;;23.02;61.85;100435.59;4987526;28;99084;-65
2023/07/01 04:30:16;;;;;;;11.10;5.20;;;;;;;22.92;61.45;100432.03;4984943;28;99295;-64
2023/07/01 04:32:43;;;;;;;6.30;5.20;;;;;;;23.08;60.82;100426.09;4992536;28;96774;-64
2023/07/01 04:35:09;;;;;;;8.27;5.13;;;;;;;23.06;60.54;100423.53;4997425;28;96744;-64
2023/07/01 04:37:37;;;;;;;9.27;5.35;;;;;;;22.97;60.42;100419.00;4991198;28;98980;-64
2023/07/01 04:40:04;;;;;;;6.57;5.18;;;;;;;22.97;60.33;100432.47;4991048;28;98979;-64
2023/07/01 04:42:31;;;;;;;7.72;5.75;;;;;;;22.78;60.84;100429.75;4994005;28;97193;-64
2023/07/01 04:44:57;;;;;;;7.82;6.45;;;;;;;22.89;60.65;100419.72;4990396;28;96910;-64
2023/07/01 04:47:24;;;;;;;10.13;5.20;;;;;;;23.01;60.34;100421.28;4997131;28;98060;-64
2023/07/01 04:49:52;;;;;;;8.93;4.93;;;;;;;23.04;59.95;100417.41;4989067;28;98858;-64
2023/07/01 04:52:18;;;;;;;6.90;5.10;;;;;;;22.93;59.83;100420.25;4989922;28;96854;-64
2023/07/01 04:54:46;;;;;;;7.43;4.90;;;;;;;22.69;60.38;100422.50;4993860;28;96808;-64
2023/07/01 04:57:13;;;;;;;5.00;4.50;;;;;;;23.17;59.22;100415.28;4988141;28;99087;-64
2023/07/01 04:59:39;;;;;;;13.70;5.15;;;;;;;23.01;59.24;100418.56;4989264;28;101942;-64
2023/07/01 05:02:05;;;;;;;8.80;4.95;;;;;;;23.01;59.41;100415.03;4994279;28;97192;-64
2023/07/01 05:04:32;;;;;;;7.10;4.55;;;;;;;22.96;59.59;100417.31;4989909;28;97394;-64
2023/07/01 05:06:58;;;;;;;6.50;4.70;;;;;;;23.06;59.61;100418.13;4989575;28;99054;-64
2023/07/01 05:09:24;;;;;;;8.75;5.22;;;;;;;23.24;59.23;100410.19;4988191;28;99098;-64
2023/07/01 05:11:52;;;;;;;10.07;5.22;;;;;;;23.71;57.69;100403.88;4987692;28;96928;-64
2023/07/01 05:14:18;;;;;;;7.63;4.55;;;;;;;24.09;56.75;100413.66;4989723;28;97000;-63
2023/07/01 05:16:45;;;;;;;5.45;4.57;;;;;;;24.41;55.03;100412.44;4986276;28;98876;-63
2023/07/01 05:19:11;;;;;;;6.70;4.43;;;;;;;24.44;55.16;100415.66;5000921;28;98791;-63
2023/07/01 05:21:38;;;;;;;5.30;4.25;;;;;;;24.54;54.63;100412.91;4993331;28;97190;-64
2023/07/01 05:24:06;;;;;;;7.15;4.93;;;;;;;24.42;54.40;100411.41;4992727;28;96887;-63
2023/07/01 05:26:32;;;;;;;6.43;4.53;;;;;;;24.40;53.80;100408.03;4994814;28;99119;-63
2023/07/01 05:29:00;;;;;;;7.38;4.75;;;;;;;24.38;53.15;100412.72;4996988;28;101017;-64
2023/07/01 05:31:26;;;;;;;6.22;4.47;;;;;;;24.23;53.18;100415.91;4997606;28;96775;-64
2023/07/01 05:33:53;;;;;;;5.72;4.45;;;;;;;23.86;54.50;100409.66;4993593;28;97345;-63
2023/07/01 05:36:19;;;;;;;5.45;4.25;;;;;;;23.84;54.64;100414.34;4999777;28;98924;-63
2023/07/01 05:38:48;;;;;;;6.70;4.60;;;;;;;24.20;53.89;100415.38;4992997;28;99075;-63
2023/07/01 05:41:14;;;;;;;9.77;4.28;;;;;;;24.42;53.10;100404.16;4989169;28;96772;-63
2023/07/01 05:43:40;;;;;;;7.55;3.78;;;;;;;24.44;53.09;100407.56;4993909;28;96971;-63
2023/07/01 05:46:08;;;;;;;7.60;3.95;;;;;;;24.49;52.26;100415.19;4988809;28;99149;-63
2023/07/01 05:48:44;;;;;;;6.07;3.90;;;;;;;24.32;51.65;100413.31;4988630;28;98328;-63
2023/07/01 05:51:10;;;;;;;7.15;3.83;;;;;;;24.38;51.45;100410.88;4992530;28;96752;-63
2023/07/01 05:53:36;;;;;;;7.55;3.55;;;;;;;24.47;50.66;100409.13;4989554;28;96840;-63
2023/07/01 05:56:03;;;;;;;8.05;3.90;;;;;;;24.53;50.08;100403.09;4987273;28;98993;-63
2023/07/01 05:58:29;;;;;;;6.82;3.60;;;;;;;24.56;50.10;100400.09;4989857;28;98940;-62
2023/07/01 06:00:55;;;;;;;6.60;3.20;;;;;;;24.76;49.38;100401.66;4986791;28;96980;-62
2023/07/01 06:03:23;;;;;;;8.52;3.40;;;;;;;24.67;50.14;100401.72;4998890;28;96999;-64
2023/07/01 06:05:49;;;;;;;7.05;2.92;;;;;;;24.64;48.54;100402.88;4998598;28;97887;-64
2023/07/01 06:08:16;;;;;;;10.55;3.05;;;;;;;24.60;48.72;100406.91;4996630;28;101078;-64
2023/07/01 06:10:42;;;;;;;8.20;3.15;;;;;;;24.84;47.79;100401.72;4991775;28;96781;-64
2023/07/01 06:13:08;;;;;;;5.50;2.80;;;;;;;25.00;47.03;100395.69;4992501;28;96825;-62
2023/07/01 06:15:35;;;;;;;4.78;2.58;;;;;;;24.90;46.89;100397.59;4993024;28;98346;-64
2023/07/01 06:18:01;;;;;;;3.55;2.72;;;;;;;25.06;46.60;100397.75;4989998;28;98862;-64
2023/07/01 06:20:29;;;;;;;4.82;2.88;;;;;;;25.26;46.05;100401.13;4994431;28;97408;-63
2023/07/01 06:22:55;;;;;;;5.28;2.78;;;;;;;25.20;46.20;100399.06;4986672;28;96822;-63
2023/07/01 06:25:21;;;;;;;7.72;2.50;;;;;;;25.64;45.36;100391.78;4993172;28;99052;-63
2023/07/01 06:27:48;;;;;;;5.05;2.78;;;;;;;25.58;45.36;100387.88;4988930;28;99067;-63
2023/07/01 06:30:15;;;;;;;4.80;2.50;;;;;;;25.65;44.77;100388.94;4992068;28;96796;-63
2023/07/01 06:32:41;;;;;;;9.05;3.42;;;;;;;26.29;44.42;100395.69;4986261;28;96869;-63
2023/07/01 06:35:08;;;;;;;4.18;2.50;;;;;;;25.93;43.84;100391.47;4992907;28;98021;-62
2023/07/01 06:37:36;;;;;;;4.10;2.20;;;;;;;25.99;43.39;100386.22;4983846;28;97762;-62
2023/07/01 06:40:03;;;;;;;4.80;2.35;;;;;;;25.86;43.22;100393.13;4998107;28;96662;-63
2023/07/01 06:42:29;;;;;;;5.07;2.25;;;;;;;25.65;43.23;100388.94;4995599;28;97078;-64
2023/07/01 06:44:55;;;;;;;4.07;2.20;;;;;;;25.70;43.34;100381.19;4991583;28;99586;-63
2023/07/01 06:47:21;;;;;;;4.10;2.10;;;;;;;26.23;43.02;100376.53;5002312;28;98849;-63
2023/07/01 06:49:48;;;;;;;6.35;2.45;;;;;;;26.09;42.12;100386.09;4990253;28;100254;-63
2023/07/01 06:52:14;;;;;;;5.38;2.00;;;;;;;26.06;42.14;100381.00;4985185;28;96874;-63
2023/07/01 06:54:42;;;;;;;4.45;1.92;;;;;;;26.36;41.20;100380.50;4990472;28;99222;-63
2023/07/01 06:57:08;;;;;;;5.28;2.67;;;;;;;25.97;41.35;100373.88;4991784;28;99026;-63
2023/07/01 06:59:34;;;;;;;7.63;2.20;;;;;;;26.08;41.41;100371.72;4996778;28;96696;-64
2023/07/01 07:02:01;;;;;;;4.10;1.90;;;;;;;26.09;41.51;100365.28;4998855;28;97475;-63
2023/07/01 07:04:27;;;;;;;5.53;1.75;;;;;;;26.57;40.64;100367.34;4996702;28;97782;-64
2023/07/01 07:06:53;;;;;;;6.18;1.88;;;;;;;26.61;40.51;100358.88;4990527;28;99293;-64
2023/07/01 07:09:20;;;;;;;4.13;2.15;;;;;;;26.50;39.62;100366.31;4996892;28;96728;-64
2023/07/01 07:11:47;;;;;;;6.10;2.28;;;;;;;26.54;40.28;100364.97;4997899;28;97234;-63
2023/07/01 07:14:14;;;;;;;3.45;1.80;;;;;;;26.85;40.25;100354.31;4991575;28;99066;-63
2023/07/01 07:16:46;;;;;;;8.82;1.83;;;;;;;27.06;38.97;100364.69;4988462;28;98986;-63
2023/07/01 07:19:12;;;;;;;3.20;1.77;;;;;;;26.81;38.83;100355.69;4998533;28;96843;-64
2023/07/01 07:21:38;;;;;;;7.32;1.98;;;;;;;27.28;37.88;100353.16;4988747;28;96797;-64
2023/07/01 07:24:05;;;;;;;3.65;1.90;;;;;;;27.09;37.17;100353.53;4985297;28;100309;-63
2023/07/01 07:26:33;;;;;;;5.75;1.88;;;;;;;26.98;36.79;100351.13;4989858;28;98148;-64
2023/07/01 07:29:02;;;;;;;7.20;1.77;;;;;;;27.17;36.46;100344.53;4992828;28;96826;-63
2023/07/01 07:31:28;;;;;;;4.05;1.83;;;;;;;27.03;34.83;100356.91;4988140;28;97377;-64
2023/07/01 07:33:54;;;;;;;4.30;2.08;;;;;;;26.69;34.92;100345.34;4989266;28;99412;-64
2023/07/01 07:36:21;;;;;;;4.85;1.75;;;;;;;26.86;35.15;100352.47;4992101;28;99043;-64
2023/07/01 07:38:47;;;;;;;4.50;1.80;;;;;;;26.80;34.76;100342.28;4986639;28;96716;-64
2023/07/01 07:41:13;;;;;;;3.45;2.08;;;;;;;27.18;34.77;100341.63;4989883;28;96922;-63
2023/07/01 07:43:40;;;;;;;7.55;1.90;;;;;;;27.09;32.64;100334.53;4996899;28;98303;-63
2023/07/01 07:46:08;;;;;;;4.13;1.60;;;;;;;27.31;32.94;100335.69;4984969;28;98185;-64
2023/07/01 07:48:34;;;;;;;3.05;1.60;;;;;;;26.92;31.91;100332.84;4997159;28;96749;-63
2023/07/01 07:51:01;;;;;;;5.70;1.50;;;;;;;26.86;31.89;100337.03;4991909;28;101116;-64
2023/07/01 07:53:27;;;;;;;3.28;1.30;;;;;;;26.85;31.90;100332.63;4984386;28;99032;-64
2023/07/01 07:55:53;;;;;;;5.60;1.50;;;;;;;27.46;31.09;100330.41;4999428;28;98960;-64
2023/07/01 07:58:20;;;;;;;2.70;1.17;;;;;;;26.94;30.75;100333.53;5001379;28;96808;-64
2023/07/01 08:00:46;;;;;;;2.65;1.20;;;;;;;27.01;31.07;100331.81;4996255;28;97084;-64
2023/07/01 08:03:14;;;;;;;4.50;1.30;;;;;;;26.59;31.72;100327.34;4990842;28;99061;-63
2023/07/01 08:05:40;;;;;;;3.75;1.48;;;;;;;26.76;31.64;100330.09;4992169;28;98964;-64
2023/07/01 08:08:08;;;;;;;6.53;1.38;;;;;;;26.90;31.27;100322.19;4991221;28;96910;-64
2023/07/01 08:10:34;;;;;;;8.68;1.35;;;;;;;26.87;32.00;100321.63;4988768;28;96796;-64
2023/07/01 08:13:00;;;;;;;3.53;1.52;;;;;;;27.20;31.21;100312.50;4986868;28;97828;-64
2023/07/01 08:15:27;;;;;;;5.03;1.15;;;;;;;27.11;30.98;100307.25;4992735;28;97859;-63
2023/07/01 08:17:53;;;;;;;3.05;1.23;;;;;;;27.42;31.01;100310.94;4986559;28;97185;-63
2023/07/01 08:20:23;;;;;;;1.33;1.00;;;;;;;27.14;30.65;100306.91;4986879;28;96797;-64
2023/07/01 08:22:49;;;;;;;1.80;1.30;;;;;;;27.59;30.95;100311.75;4986777;28;98868;-63
2023/07/01 08:25:15;;;;;;;3.10;1.50;;;;;;;27.56;30.60;100302.13;4991247;28;98817;-63
2023/07/01 08:27:42;;;;;;;3.58;1.23;;;;;;;27.74;30.91;100305.44;4998387;28;96941;-64
2023/07/01 08:30:08;;;;;;;1.70;1.35;;;;;;;27.85;30.86;100306.91;4987085;28;96861;-63
2023/07/01 08:32:35;;;;;;;2.33;1.13;;;;;;;27.81;30.25;100302.00;4995227;28;102101;-64
2023/07/01 08:35:01;;;;;;;3.17;1.42;;;;;;;27.69;29.43;100296.97;5002216;28;98944;-63
2023/07/01 08:37:29;;;;;;;2.88;1.15;;;;;;;27.38;29.74;100294.13;4995721;28;96837;-63
2023/07/01 08:39:56;;;;;;;4.22;1.20;;;;;;;27.43;30.89;100296.34;4993575;28;96875;-62
2023/07/01 08:42:28;;;;;;;5.68;1.50;;;;;;;27.73;30.88;100298.31;4991642;28;98760;-64
2023/07/01 08:44:55;;;;;;;3.65;1.50;;;;;;;27.66;30.45;100286.44;4995307;28;98892;-64
2023/07/01 08:47:22;;;;;;;8.10;1.95;;;;;;;27.85;30.07;100285.19;4993262;28;97012;-63
2023/07/01 08:49:54;;;;;;;1.63;1.27;;;;;;;27.95;30.47;100288.53;4991073;28;96871;-63
2023/07/01 08:52:22;;;;;;;3.00;1.30;;;;;;;27.94;30.21;100278.69;4992851;28;98930;-63
2023/07/01 08:54:50;;;;;;;1.98;1.45;;;;;;;28.19;30.12;100271.28;4986955;28;98863;-63
2023/07/01 08:57:19;;;;;;;4.57;1.60;;;;;;;27.76;30.38;100272.69;4988450;28;96672;-65
2023/07/01 08:59:47;;;;;;;2.38;1.30;;;;;;;27.77;30.24;100266.22;4989254;28;96854;-64
2023/07/01 09:02:15;;;;;;;2.92;1.77;;;;;;;27.95;30.22;100272.25;4987073;28;99318;-64
2023/07/01 09:04:41;;;;;;;2.33;0.95;;;;;;;27.84;30.11;100277.22;4995415;28;98790;-64
2023/07/01 09:07:10;;;;;;;13.80;1.73;;;;;;;27.66;29.89;100274.75;4993818;28;96955;-64
2023/07/01 09:09:38;;;;;;;2.13;1.30;;;;;;;28.02;28.70;100267.81;4986211;28;97163;-64
2023/07/01 09:12:07;;;;;;;2.75;1.52;;;;;;;27.77;28.85;100255.34;4998579;28;99190;-64
2023/07/01 09:14:56;;;;;;;4.03;1.65;;;;;;;27.88;29.44;100268.56;4986474;28;99642;-64
2023/07/01 09:17:27;;;;;;;2.28;1.23;;;;;;;27.70;29.82;100265.22;5000973;28;96886;-63
2023/07/01 09:19:53;;;;;;;5.90;1.40;;;;;;;27.77;29.75;100258.06;4985373;28;97065;-63
2023/07/01 09:22:20;;;;;;;3.10;1.33;;;;;;;28.04;30.05;100248.59;4992712;28;97754;-63
2023/07/01 09:24:46;;;;;;;3.10;1.30;;;;;;;27.83;29.44;100251.94;4984315;28;99122;-64
2023/07/01 09:27:14;;;;;;;4.72;1.63;;;;;;;28.10;29.65;100245.16;4994459;28;96800;-65
2023/07/01 09:29:40;;;;;;;4.95;1.30;;;;;;;28.11;29.34;100250.41;4987535;28;96731;-63
2023/07/01 09:32:07;;;;;;;3.63;1.50;;;;;;;28.25;29.09;100246.13;4992699;28;99162;-65
2023/07/01 09:34:52;;;;;;;2.53;1.50;;;;;;;28.13;28.97;100234.78;4982449;28;97727;-63
2023/07/01 09:37:19;;;;;;;6.03;1.67;;;;;;;28.11;29.24;100223.25;4988405;28;96756;-64
2023/07/01 09:39:45;;;;;;;3.55;1.73;;;;;;;27.65;29.81;100221.47;4985243;28;98373;-63
2023/07/01 09:42:12;;;;;;;5.03;1.70;;;;;;;27.54;29.91;100222.72;4981703;28;99348;-64
2023/07/01 09:44:40;;;;;;;3.08;1.55;;;;;;;27.22;30.91;100217.41;4986041;28;98840;-65
2023/07/01 09:47:07;;;;;;;3.10;1.42;;;;;;;27.52;30.73;100223.91;4989907;28;96709;-66
2023/07/01 09:49:38;;;;;;;4.13;1.80;;;;;;;27.76;30.42;100210.25;4990110;28;97120;-64
2023/07/01 09:52:05;;;;;;;2.65;1.23;;;;;;;27.87;30.30;100209.84;4989394;28;97442;-62
2023/07/01 09:54:32;;;;;;;2.92;1.48;;;;;;;28.07;29.92;100202.94;4999936;28;98930;-63
2023/07/01 09:56:59;;;;;;;4.82;1.85;;;;;;;28.07;29.68;100205.66;4996381;28;96797;-63
2023/07/01 09:59:27;;;;;;;4.95;1.88;;;;;;;27.79;30.06;100209.03;5003279;28;97014;-63
2023/07/01 10:01:55;;;;;;;7.13;1.98;;;;;;;27.74;29.85;100201.44;4991375;28;102031;-63
2023/07/01 10:04:25;;;;;;;10.65;2.30;;;;;;;27.40;30.81;100204.44;4995724;28;98938;-64
2023/07/01 10:06:52;;;;;;;3.15;1.70;;;;;;;27.84;30.42;100207.47;4986517;28;97002;-63
2023/07/01 10:09:18;;;;;;;19.23;2.45;;;;;;;28.01;30.10;100187.34;4998918;28;97046;-63
2023/07/01 10:11:45;;;;;;;4.65;1.40;;;;;;;28.00;29.79;100196.53;4982442;28;98901;-64
2023/07/01 10:14:12;;;;;;;8.70;1.80;;;;;;;27.93;30.17;100194.69;4990189;28;98987;-64
2023/07/01 10:16:46;;;;;;;6.28;1.40;;;;;;;27.94;29.66;100185.53;4994599;28;96684;-64
2023/07/01 10:19:27;;;;;;;2.78;1.58;;;;;;;28.19;29.73;100187.09;4991882;28;97136;-63
2023/07/01 10:21:54;;;;;;;2.95;1.48;;;;;;;28.26;29.77;100173.63;4984392;28;99354;-64
2023/07/01 10:24:37;;;;;;;3.25;1.70;;;;;;;28.07;30.30;100183.91;4988433;28;98917;-64
2023/07/01 10:27:04;;;;;;;1.92;1.42;;;;;;;28.00;30.01;100173.94;4990978;28;97218;-64
2023/07/01 10:29:56;;;;;;;4.30;1.75;;;;;;;28.23;30.08;100160.38;4987526;28;96839;-64
2023/07/01 10:32:30;;;;;;;12.30;2.70;;;;;;;28.25;29.67;100155.63;4978848;28;99131;-64
2023/07/01 10:35:15;;;;;;;8.20;1.90;;;;;;;28.48;30.21;100151.03;5003183;28;98945;-63
2023/07/01 10:37:42;;;;;;;4.00;1.42;;;;;;;28.73;29.35;100143.47;4995730;28;96826;-64
2023/07/01 10:40:42;;;;;;;4.68;2.15;;;;;;;28.96;29.05;100140.69;4996443;28;97173;-64
2023/07/01 10:43:29;;;;;;;4.00;1.65;;;;;;;29.02;29.32;100151.66;4998652;28;99163;-64
2023/07/01 10:46:21;;;;;;;2.97;1.60;;;;;;;28.80;29.22;100148.00;4985406;28;98730;-64
2023/07/01 10:49:08;;;;;;;6.25;1.85;;;;;;;28.90;28.60;100134.97;4999571;28;96725;-65
2023/07/01 10:52:06;;;;;;;3.80;1.60;;;;;;;29.20;29.05;100134.97;4987932;28;97178;-63
2023/07/01 10:54:38;;;;;;;2.95;1.45;;;;;;;29.05;29.34;100128.69;4978490;28;98583;-64
2023/07/01 10:57:12;;;;;;;5.20;1.83;;;;;;;29.41;29.13;100116.00;4995046;28;98936;-63
2023/07/01 10:59:38;;;;;;;6.70;1.60;;;;;;;29.82;28.58;100123.56;4987041;28;96787;-64
2023/07/01 11:02:05;;;;;;;5.57;1.90;;;;;;;29.45;28.64;100121.91;4995827;28;96952;-64
2023/07/01 11:05:05;;;;;;;5.60;1.70;;;;;;;29.13;29.07;100120.44;4991244;28;99238;-64
2023/07/01 11:07:33;;;;;;;5.60;1.80;;;;;;;29.13;29.35;100120.44;4985485;28;96800;-63
2023/07/01 11:09:59;;;;;;;7.03;1.83;;;;;;;29.34;29.56;100112.38;4982724;28;96815;-63
2023/07/01 11:12:27;;;;;;;10.02;2.15;;;;;;;29.32;29.61;100111.69;4985787;28;96802;-63
2023/07/01 11:14:54;;;;;;;3.83;1.75;;;;;;;28.90;28.99;100117.81;4994342;28;98959;-63
2023/07/01 11:17:22;;;;;;;5.18;1.95;;;;;;;29.07;29.81;100102.16;4991949;28;98879;-63
2023/07/01 11:19:54;;;;;;;5.15;1.75;;;;;;;29.57;29.01;100104.88;4995835;28;96934;-63
2023/07/01 11:22:20;;;;;;;2.33;1.73;;;;;;;29.52;29.64;100096.47;4990757;28;97057;-64
2023/07/01 11:24:48;;;;;;;2.38;1.65;;;;;;;29.79;29.63;100094.03;4995775;28;99133;-64
2023/07/01 11:27:14;;;;;;;4.55;1.90;;;;;;;30.29;29.22;100084.88;4996603;28;99010;-64
2023/07/01 11:29:45;;;;;;;6.50;2.08;;;;;;;30.19;28.43;100087.94;4995524;28;97591;-63